Time;durP1;ratioP1;P1;durP2;ratioP2;P2;SDS_P1;SDS_P2;PMS_P1;PMS_P2;Temp;Humidity;BMP_temperature;BMP_pressure;BME280_temperature;BME280_humidity;BME280_pressure;Samples;Min_cycle;Max_cycle;Signal;HPM_P1;HPM_P2
2023/01/29 00:01:14;;;;;;;11.07;7.00;;;;;;;6.69;63.10;94706.34;5090995;28;20196;-50
2023/01/29 00:03:41;;;;;;;8.50;6.60;;;;;;;6.69;63.01;94705.50;5091196;28;20217;-48
2023/01/29 00:06:09;;;;;;;9.50;7.43;;;;;;;6.69;63.20;94710.59;5090883;28;20194;-47
2023/01/29 00:08:36;;;;;;;8.97;6.63;;;;;;;6.64;63.12;94698.22;5090756;28;20194;-45
2023/01/29 00:11:03;;;;;;;9.80;6.93;;;;;;;6.63;63.06;94701.69;5090706;28;20182;-47
2023/01/29 00:13:30;;;;;;;8.27;6.67;;;;;;;6.65;63.11;94714.28;5090654;28;20736;-48
2023/01/29 00:15:58;;;;;;;7.17;6.07;;;;;;;6.63;63.17;94714.41;5091037;28;20198;-48
2023/01/29 00:18:27;;;;;;;8.57;7.10;;;;;;;6.62;62.97;94715.34;5090539;28;20901;-47
2023/01/29 00:20:55;;;;;;;10.23;6.93;;;;;;;6.62;63.10;94714.53;5091153;28;20256;-48
2023/01/29 00:23:22;;;;;;;8.13;6.50;;;;;;;6.58;63.11;94718.22;5090762;28;20182;-48
2023/01/29 00:25:49;;;;;;;9.30;7.30;;;;;;;6.54;63.21;94707.47;5090151;28;20228;-47
2023/01/29 00:28:16;;;;;;;9.93;6.27;;;;;;;6.57;63.25;94704.72;5093267;28;20182;-48
2023/01/29 00:30:42;;;;;;;8.70;6.13;;;;;;;6.62;63.18;94724.69;5091561;28;20181;-46
2023/01/29 00:33:10;;;;;;;9.83;6.83;;;;;;;6.63;63.15;94729.66;5090494;28;20308;-48
2023/01/29 00:35:40;;;;;;;6.87;6.10;;;;;;;6.62;63.26;94720.41;5090595;28;20186;-47
2023/01/29 00:38:07;;;;;;;8.63;6.47;;;;;;;6.63;63.11;94721.22;5090024;28;20288;-47
2023/01/29 00:44:56;;;;;;;8.37;6.50;;;;;;;6.63;63.19;94732.19;5090934;28;20182;-47
2023/01/29 00:46:10;;;;;;;7.33;5.63;;;;;;;6.61;63.16;94726.44;5047791;28;20932;-48
2023/01/29 00:48:37;;;;;;;8.20;6.60;;;;;;;6.61;63.34;94718.81;5047682;28;20202;-47
2023/01/29 00:51:05;;;;;;;8.00;7.00;;;;;;;6.60;63.31;94718.91;5047238;28;20664;-46
2023/01/29 00:53:32;;;;;;;7.80;6.60;;;;;;;6.60;63.42;94721.44;5047259;28;20195;-47
2023/01/29 00:55:59;;;;;;;9.53;6.77;;;;;;;6.59;63.39;94718.09;5047206;28;20264;-47
2023/01/29 00:58:27;;;;;;;10.57;7.00;;;;;;;6.59;63.41;94720.63;5046840;28;20352;-47
2023/01/29 01:00:54;;;;;;;7.30;6.30;;;;;;;6.57;63.27;94721.69;5047512;28;20669;-47
2023/01/29 01:03:20;;;;;;;7.07;6.17;;;;;;;6.58;63.45;94721.56;5047031;28;20225;-47
2023/01/29 01:05:47;;;;;;;8.70;6.27;;;;;;;6.58;63.42;94726.66;5047120;28;20195;-46
2023/01/29 01:11:01;;;;;;;8.00;6.37;;;;;;;6.52;63.32;94716.94;5047533;28;20190;-48
2023/01/29 01:13:29;;;;;;;7.40;5.97;;;;;;;6.48;63.58;94713.81;5046585;28;20202;-48
2023/01/29 01:15:55;;;;;;;8.90;6.43;;;;;;;6.54;63.56;94720.97;5047440;28;20628;-47
2023/01/29 01:18:22;;;;;;;9.17;6.70;;;;;;;6.55;63.51;94721.78;5047066;28;20187;-48
2023/01/29 01:20:50;;;;;;;7.43;6.30;;;;;;;6.57;63.47;94721.69;5046931;28;20252;-46
2023/01/29 01:23:19;;;;;;;9.83;6.53;;;;;;;6.47;63.46;94706.28;5069926;28;20665;-48
2023/01/29 01:25:46;;;;;;;10.97;6.60;;;;;;;6.53;63.62;94714.28;5089145;28;20189;-47
2023/01/29 01:28:13;;;;;;;7.43;5.73;;;;;;;6.54;63.51;94718.44;5089383;28;20280;-49
2023/01/29 01:30:39;;;;;;;7.53;6.13;;;;;;;6.50;63.66;94711.16;5089224;28;20189;-47
2023/01/29 01:33:06;;;;;;;7.97;6.57;;;;;;;6.52;63.41;94706.78;5089572;28;20221;-46
2023/01/29 01:35:33;;;;;;;9.37;7.43;;;;;;;6.54;63.61;94717.63;5089277;28;20186;-46
2023/01/29 01:38:00;;;;;;;8.40;6.47;;;;;;;6.53;63.55;94721.91;5088703;28;20231;-47
2023/01/29 01:40:28;;;;;;;7.97;6.30;;;;;;;6.50;63.52;94714.50;5089622;28;20182;-47
2023/01/29 01:42:57;;;;;;;7.97;6.43;;;;;;;6.53;63.61;94723.63;5088824;28;20649;-48
2023/01/29 01:45:27;;;;;;;7.63;5.87;;;;;;;6.51;63.64;94718.66;5087498;28;20302;-49
2023/01/29 01:48:05;;;;;;;11.67;6.67;;;;;;;6.53;63.79;94726.97;5089143;28;20216;-48
2023/01/29 01:50:37;;;;;;;9.17;6.40;;;;;;;6.27;63.68;94690.78;5088892;28;20204;-46
2023/01/29 01:53:07;;;;;;;6.83;6.07;;;;;;;6.52;63.89;94730.44;5088474;28;20229;-48
2023/01/29 01:55:41;;;;;;;6.67;5.97;;;;;;;6.50;63.68;94726.41;5088696;28;20304;-48
2023/01/29 01:58:11;;;;;;;10.43;6.17;;;;;;;6.49;63.75;94727.31;5089503;28;20181;-48
2023/01/29 02:00:39;;;;;;;6.97;6.13;;;;;;;6.49;63.76;94725.59;5089248;28;20242;-48
2023/01/29 02:11:32;;;;;;;7.17;6.00;;;;;;;6.46;64.15;94730.88;5088892;28;20224;-49
2023/01/29 02:13:59;;;;;;;8.27;6.43;;;;;;;6.46;64.11;94735.97;5089368;28;20186;-47
2023/01/29 02:16:26;;;;;;;7.50;6.47;;;;;;;6.47;63.92;94736.78;5088491;28;20689;-48
2023/01/29 02:18:54;;;;;;;10.00;7.27;;;;;;;6.47;64.24;94735.03;5088938;28;20247;-51
2023/01/29 02:21:36;;;;;;;6.73;5.93;;;;;;;6.47;64.29;94729.94;5088761;28;20280;-47
2023/01/29 02:24:43;;;;;;;7.67;5.80;;;;;;;6.45;64.14;94733.53;5070806;28;20193;-46
2023/01/29 02:27:14;;;;;;;10.20;6.70;;;;;;;6.44;64.30;94731.94;5049875;28;20743;-47
2023/01/29 02:29:54;;;;;;;7.13;6.27;;;;;;;6.46;64.33;94738.50;5052486;28;20184;-49
2023/01/29 02:32:29;;;;;;;6.13;5.50;;;;;;;6.46;64.46;94742.78;5046386;28;20260;-47
2023/01/29 02:35:25;;;;;;;7.87;5.87;;;;;;;6.45;64.59;94748.78;5046297;28;20207;-46
2023/01/29 02:37:58;;;;;;;8.07;5.70;;;;;;;6.44;64.44;94753.06;5046023;28;20233;-47
2023/01/29 02:40:31;;;;;;;7.60;6.13;;;;;;;6.45;64.58;94751.31;5031160;28;20191;-47
2023/01/29 02:43:06;;;;;;;8.20;6.97;;;;;;;6.46;64.51;94752.94;5044252;28;20771;-48
2023/01/29 02:45:45;;;;;;;8.00;5.73;;;;;;;6.46;64.56;94755.47;5045830;28;20758;-47
2023/01/29 02:48:17;;;;;;;6.77;6.03;;;;;;;6.43;64.54;94751.44;5046941;28;20199;-48
2023/01/29 02:50:49;;;;;;;7.50;5.97;;;;;;;6.46;64.65;94758.81;5049385;28;20206;-48
2023/01/29 02:53:20;;;;;;;6.87;5.23;;;;;;;6.45;64.84;94764.84;5049479;28;20227;-47
2023/01/29 02:55:51;;;;;;;7.90;5.90;;;;;;;6.45;64.73;94764.84;5029452;28;20203;-48
2023/01/29 02:58:25;;;;;;;7.47;5.47;;;;;;;6.45;64.67;94758.94;5029648;28;20253;-49
2023/01/29 03:00:56;;;;;;;7.67;5.90;;;;;;;6.45;64.70;94757.22;5029648;28;20192;-49
2023/01/29 03:03:28;;;;;;;8.17;6.03;;;;;;;6.45;64.80;94752.13;5048729;28;20209;-50
2023/01/29 03:06:05;;;;;;;6.57;5.70;;;;;;;6.46;64.95;94752.94;5072978;28;20190;-48
2023/01/29 03:08:41;;;;;;;6.67;4.93;;;;;;;6.43;64.93;94754.00;5080798;28;20730;-49
2023/01/29 03:11:12;;;;;;;7.20;5.40;;;;;;;6.35;64.79;94741.03;5098394;28;20672;-49
2023/01/29 03:13:44;;;;;;;7.17;5.77;;;;;;;6.46;64.96;94758.03;5093864;28;20216;-48
2023/01/29 03:16:19;;;;;;;7.73;5.63;;;;;;;6.45;64.96;94758.94;5092265;28;20196;-47
2023/01/29 03:18:52;;;;;;;6.90;5.77;;;;;;;6.44;65.04;94760.69;5091800;28;20220;-46
2023/01/29 03:32:37;;;;;;;6.73;5.80;;;;;;;6.42;65.38;94772.66;5091377;28;20213;-51
2023/01/29 03:35:08;;;;;;;6.83;5.53;;;;;;;6.41;65.09;94771.06;5091604;28;20197;-49
2023/01/29 03:37:38;;;;;;;6.23;4.97;;;;;;;6.42;65.15;94772.66;5090853;28;20197;-49
2023/01/29 03:40:08;;;;;;;7.17;5.97;;;;;;;6.42;65.20;94761.69;5091370;28;20280;-47
2023/01/29 03:42:47;;;;;;;8.07;6.00;;;;;;;6.38;65.22;94762.84;5090359;28;20249;-50
2023/01/29 03:45:22;;;;;;;6.30;5.63;;;;;;;6.41;65.21;94771.06;5091326;28;20278;-51
2023/01/29 03:47:59;;;;;;;6.10;5.50;;;;;;;6.42;65.26;94769.31;5090955;28;20658;-49
2023/01/29 03:50:38;;;;;;;5.83;5.20;;;;;;;6.43;65.10;94765.84;5091127;28;20201;-49
2023/01/29 03:53:15;;;;;;;6.57;5.27;;;;;;;6.43;65.16;94768.41;5091041;28;20331;-47
2023/01/29 03:55:48;;;;;;;6.87;5.27;;;;;;;6.43;65.14;94763.31;5090830;28;20193;-50
2023/01/29 03:58:23;;;;;;;5.40;4.73;;;;;;;6.44;65.13;94762.41;5091261;28;20185;-46
2023/01/29 04:00:56;;;;;;;6.83;5.50;;;;;;;6.22;65.04;94735.22;5090655;28;20193;-48
2023/01/29 04:03:29;;;;;;;7.23;4.93;;;;;;;6.36;65.29;94752.81;5091448;28;20208;-48
2023/01/29 04:06:08;;;;;;;5.93;4.73;;;;;;;6.43;65.08;94761.59;5090795;28;20186;-49
2023/01/29 04:08:40;;;;;;;6.20;5.20;;;;;;;6.44;65.12;94763.22;5090607;28;20193;-47
2023/01/29 04:11:14;;;;;;;5.63;4.87;;;;;;;6.44;65.15;94770.84;5090831;28;20190;-47
2023/01/29 04:13:41;;;;;;;5.90;4.33;;;;;;;6.20;64.99;94725.16;5090987;28;20221;-48
2023/01/29 04:16:13;;;;;;;5.87;5.27;;;;;;;6.45;65.12;94771.66;5090701;28;20193;-48
2023/01/29 04:18:44;;;;;;;5.90;5.30;;;;;;;6.41;65.27;94771.06;5092411;28;20630;-48
2023/01/29 04:21:11;;;;;;;5.03;4.63;;;;;;;6.42;65.37;94767.59;5092614;28;20186;-47
2023/01/29 04:23:38;;;;;;;6.03;4.27;;;;;;;6.45;65.25;94776.72;5091595;28;20654;-46
2023/01/29 04:26:42;;;;;;;5.17;4.70;;;;;;;6.45;65.28;94775.00;5093131;28;20223;-47
2023/01/29 04:29:30;;;;;;;5.27;4.63;;;;;;;6.36;65.13;94769.78;5090422;28;20190;-47
2023/01/29 04:32:06;;;;;;;6.00;4.93;;;;;;;6.44;65.38;94785.28;5090512;28;20627;-48
2023/01/29 04:34:44;;;;;;;6.90;5.30;;;;;;;6.43;65.30;94787.00;5090024;28;20660;-47
2023/01/29 04:37:18;;;;;;;5.23;4.47;;;;;;;6.44;65.31;94785.28;5090595;28;20569;-47
2023/01/29 04:39:54;;;;;;;5.70;4.60;;;;;;;6.42;65.35;94785.38;5089955;28;20201;-48
2023/01/29 04:42:28;;;;;;;5.43;4.67;;;;;;;6.30;65.25;94771.00;5090697;28;20185;-54
2023/01/29 04:45:03;;;;;;;5.53;4.43;;;;;;;6.40;65.39;94786.41;5069844;28;20245;-46
2023/01/29 04:47:35;;;;;;;4.83;4.03;;;;;;;6.42;65.35;94785.38;5070133;28;20197;-46
2023/01/29 04:50:13;;;;;;;5.57;4.70;;;;;;;6.42;65.38;94784.56;5070236;28;20598;-47
2023/01/29 04:52:48;;;;;;;5.33;4.83;;;;;;;6.32;65.43;94768.38;5069806;28;20291;-47
2023/01/29 04:55:20;;;;;;;5.43;4.60;;;;;;;6.42;65.51;94790.44;5070039;28;20189;-48
2023/01/29 04:57:53;;;;;;;5.53;5.03;;;;;;;6.42;65.24;94789.63;5074225;28;20412;-47
2023/01/29 05:00:27;;;;;;;5.43;4.90;;;;;;;6.42;65.33;94787.09;5090381;28;20181;-47
2023/01/29 05:02:54;;;;;;;5.67;4.60;;;;;;;6.29;65.30;94774.47;5093116;28;20193;-49
2023/01/29 05:05:22;;;;;;;4.70;4.20;;;;;;;6.42;65.40;94792.19;5092827;28;20277;-48
2023/01/29 05:07:50;;;;;;;4.93;4.37;;;;;;;6.39;65.35;94793.22;5089689;28;20570;-47
2023/01/29 05:10:20;;;;;;;6.20;4.83;;;;;;;6.42;65.40;94792.19;5090253;28;20503;-48
2023/01/29 05:12:51;;;;;;;4.07;3.70;;;;;;;6.34;65.44;94780.03;5092813;28;20654;-47
2023/01/29 05:15:25;;;;;;;4.43;4.03;;;;;;;6.41;65.46;94801.53;5096283;28;20670;-49
2023/01/29 05:17:53;;;;;;;4.43;4.03;;;;;;;6.42;65.43;94800.59;5095096;28;20254;-51
2023/01/29 05:20:22;;;;;;;4.57;4.07;;;;;;;6.43;65.28;94798.88;5097106;28;20220;-47
2023/01/29 05:22:49;;;;;;;4.57;3.80;;;;;;;6.42;65.35;94803.16;5093090;28;20197;-55
2023/01/29 05:25:21;;;;;;;5.10;4.60;;;;;;;6.38;65.47;94794.13;5098088;28;20291;-47
2023/01/29 05:28:04;;;;;;;5.03;4.30;;;;;;;6.42;65.47;94797.25;5098183;28;20201;-47
2023/01/29 05:30:36;;;;;;;5.07;4.37;;;;;;;6.43;65.43;94804.78;5094654;28;20185;-48
2023/01/29 05:33:04;;;;;;;4.60;4.17;;;;;;;6.42;65.37;94804.88;5094888;28;20229;-48
2023/01/29 05:35:32;;;;;;;4.53;4.13;;;;;;;6.34;65.49;94792.72;5092327;28;20642;-52
2023/01/29 05:37:59;;;;;;;5.73;4.40;;;;;;;6.41;65.51;94809.16;5089787;28;20186;-48
2023/01/29 05:40:26;;;;;;;6.13;4.00;;;;;;;6.43;65.43;94809.03;5089797;28;20185;-48
2023/01/29 05:42:53;;;;;;;4.70;4.03;;;;;;;6.43;65.52;94817.50;5089270;28;20190;-47
2023/01/29 05:45:20;;;;;;;4.77;4.20;;;;;;;6.42;65.36;94815.84;5089748;28;20240;-49
2023/01/29 05:47:47;;;;;;;4.67;4.20;;;;;;;6.44;65.38;94818.28;5089233;28;20185;-48
2023/01/29 05:50:15;;;;;;;4.27;3.87;;;;;;;6.43;65.36;94814.13;5089682;28;20194;-48
2023/01/29 05:52:43;;;;;;;4.77;3.93;;;;;;;6.44;65.30;94820.84;5089189;28;20181;-47
2023/01/29 05:55:10;;;;;;;4.17;3.77;;;;;;;6.44;65.47;94823.38;5089355;28;20526;-47
2023/01/29 05:57:39;;;;;;;4.63;4.17;;;;;;;6.44;65.47;94825.91;5089649;28;20182;-47
2023/01/29 06:00:07;;;;;;;4.03;3.63;;;;;;;6.44;65.38;94821.66;5089861;28;20260;-47
2023/01/29 06:02:34;;;;;;;4.83;3.77;;;;;;;6.44;65.37;94824.19;5088827;28;20186;-48
2023/01/29 06:05:01;;;;;;;4.50;4.10;;;;;;;6.41;65.51;94824.38;5089626;28;20266;-47
2023/01/29 06:07:28;;;;;;;4.27;3.80;;;;;;;6.45;65.64;94835.97;5089877;28;20600;-48
2023/01/29 06:09:56;;;;;;;4.53;4.07;;;;;;;6.46;65.35;94835.03;5089679;28;20186;-56
2023/01/29 06:12:23;;;;;;;4.20;3.80;;;;;;;6.48;65.36;94840.03;5089287;28;20190;-48
2023/01/29 06:14:50;;;;;;;4.33;3.93;;;;;;;6.48;65.31;94845.09;5089336;28;20217;-48
2023/01/29 06:17:17;;;;;;;5.13;3.77;;;;;;;6.50;65.52;94844.06;5089536;28;20587;-51
2023/01/29 06:19:44;;;;;;;4.10;3.70;;;;;;;6.53;65.22;94850.66;5089364;28;20193;-48
2023/01/29 06:22:10;;;;;;;6.07;4.10;;;;;;;6.53;65.41;94845.56;5089997;28;20200;-49
2023/01/29 06:24:37;;;;;;;4.17;3.77;;;;;;;6.56;65.29;94860.59;5093108;28;20189;-49
2023/01/29 06:27:05;;;;;;;5.53;5.03;;;;;;;6.56;65.38;94858.03;5093116;28;20689;-49
2023/01/29 06:29:32;;;;;;;4.30;3.83;;;;;;;6.58;65.32;94858.75;5093864;28;20185;-48
2023/01/29 06:31:59;;;;;;;5.20;4.27;;;;;;;6.62;65.42;94861.91;5095420;28;20189;-48
2023/01/29 06:34:26;;;;;;;4.20;3.80;;;;;;;6.62;65.12;94862.72;5094888;28;20209;-48
2023/01/29 06:36:52;;;;;;;4.47;4.07;;;;;;;6.66;65.13;94874.28;5092949;28;20196;-47
2023/01/29 06:39:19;;;;;;;4.80;4.20;;;;;;;6.67;65.21;94870.00;5092976;28;20200;-49
2023/01/29 06:41:46;;;;;;;5.10;4.20;;;;;;;6.70;65.19;94868.06;5093326;28;20184;-47
2023/01/29 06:44:14;;;;;;;4.97;4.10;;;;;;;6.54;65.31;94842.91;5092936;28;20197;-48
2023/01/29 06:46:41;;;;;;;5.03;4.10;;;;;;;6.78;65.19;94875.13;5092873;28;20201;-47
2023/01/29 06:49:08;;;;;;;5.07;4.53;;;;;;;6.83;65.06;94878.16;5093516;28;20190;-46
2023/01/29 06:51:35;;;;;;;4.67;4.00;;;;;;;6.87;64.84;94879.56;5093019;28;20189;-47
2023/01/29 06:54:01;;;;;;;5.03;4.40;;;;;;;6.66;64.86;94842.97;5093108;28;20217;-48
2023/01/29 06:56:28;;;;;;;5.00;4.50;;;;;;;6.94;64.90;94883.25;5092299;28;20263;-46
2023/01/29 06:58:55;;;;;;;4.63;4.23;;;;;;;6.99;64.88;94877.84;5092528;28;20200;-47
2023/01/29 07:01:23;;;;;;;5.90;4.50;;;;;;;6.98;64.70;94871.13;5092074;28;20200;-48
2023/01/29 07:03:50;;;;;;;5.43;4.50;;;;;;;7.08;64.62;94884.81;5093005;28;20201;-47
2023/01/29 07:06:17;;;;;;;5.57;5.03;;;;;;;7.13;64.76;94889.56;5092204;28;20239;-47
2023/01/29 07:08:44;;;;;;;4.70;4.20;;;;;;;7.17;64.75;94896.06;5092557;28;20193;-48
2023/01/29 07:11:11;;;;;;;6.83;5.30;;;;;;;7.22;64.50;94899.06;5092321;28;20182;-49
2023/01/29 07:13:38;;;;;;;5.37;4.50;;;;;;;7.24;64.48;94890.38;5091769;28;20222;-47
2023/01/29 07:16:06;;;;;;;5.63;4.73;;;;;;;7.27;64.54;94902.88;5092333;28;20200;-46
2023/01/29 07:18:34;;;;;;;5.27;4.77;;;;;;;7.08;64.56;94861.94;5091911;28;20218;-48
2023/01/29 07:21:05;;;;;;;5.90;5.03;;;;;;;7.18;64.46;94872.22;5091891;28;20621;-47
2023/01/29 07:23:32;;;;;;;6.07;4.87;;;;;;;7.36;64.38;94903.13;5092037;28;20209;-47
2023/01/29 07:26:02;;;;;;;5.37;4.87;;;;;;;7.38;64.42;94908.91;5091897;28;20657;-48
2023/01/29 07:28:29;;;;;;;5.60;4.90;;;;;;;7.36;64.46;94903.13;5092091;28;20181;-47
2023/01/29 07:30:57;;;;;;;5.27;4.77;;;;;;;7.41;64.29;94913.78;5092083;28;20542;-46
2023/01/29 07:33:24;;;;;;;6.10;5.13;;;;;;;7.43;64.23;94914.50;5091654;28;20225;-48
2023/01/29 07:35:52;;;;;;;5.30;4.80;;;;;;;7.44;64.22;94919.47;5091256;28;20743;-47
2023/01/29 07:38:19;;;;;;;6.47;5.20;;;;;;;7.44;64.21;94911.81;5091747;28;20181;-49
2023/01/29 07:40:46;;;;;;;6.53;5.43;;;;;;;7.48;64.17;94913.22;5091263;28;20197;-48
2023/01/29 07:43:13;;;;;;;6.00;5.07;;;;;;;7.52;64.07;94909.53;5091633;28;20280;-53
2023/01/29 07:45:40;;;;;;;7.67;5.67;;;;;;;8.07;84.23;94908.84;5090670;28;20596;-50
2023/01/29 07:48:10;;;;;;;11.30;5.00;;;;;;;8.85;90.55;94915.53;5090864;28;20197;-51
2023/01/29 07:50:38;;;;;;;5.90;4.57;;;;;;;9.37;87.76;94912.16;5089075;28;20181;-48
2023/01/29 07:53:06;;;;;;;8.57;4.70;;;;;;;9.57;84.58;94925.84;5090671;28;20181;-50
2023/01/29 07:55:33;;;;;;;6.40;5.17;;;;;;;9.62;81.09;94920.34;5090306;28;20186;-50
2023/01/29 07:58:02;;;;;;;8.37;5.70;;;;;;;9.60;77.72;94917.94;5090415;28;20561;-48
2023/01/29 08:00:29;;;;;;;5.47;4.97;;;;;;;9.58;75.76;94924.91;5090443;28;20182;-53
2023/01/29 08:03:02;;;;;;;6.83;5.23;;;;;;;9.55;74.78;94928.53;5089646;28;20673;-52
2023/01/29 08:05:29;;;;;;;7.70;6.43;;;;;;;9.52;74.23;94927.97;5090547;28;20285;-50
2023/01/29 08:07:56;;;;;;;14.37;5.67;;;;;;;9.48;73.93;94931.69;5086377;28;20612;-48
2023/01/29 08:10:24;;;;;;;7.17;5.87;;;;;;;9.44;73.17;94927.78;5087913;28;20346;-50
2023/01/29 08:12:55;;;;;;;9.93;5.70;;;;;;;9.40;72.87;94928.97;5087953;28;20180;-53
2023/01/29 08:15:21;;;;;;;8.03;5.97;;;;;;;9.33;72.28;94935.50;5088349;28;20209;-50
2023/01/29 08:17:48;;;;;;;7.30;5.40;;;;;;;9.27;71.78;94931.69;5088296;28;20280;-48
2023/01/29 08:20:15;;;;;;;6.50;5.80;;;;;;;9.22;71.05;94932.06;5088444;28;20186;-50
2023/01/29 08:22:42;;;;;;;6.60;5.90;;;;;;;9.16;70.64;94922.38;5088100;28;20193;-52
2023/01/29 08:25:09;;;;;;;7.53;5.77;;;;;;;9.13;69.96;94943.00;5087978;28;20258;-50
2023/01/29 08:27:37;;;;;;;6.20;5.60;;;;;;;8.79;69.61;94893.88;5087575;28;20189;-51
2023/01/29 08:30:05;;;;;;;8.30;6.23;;;;;;;9.01;69.07;94941.44;5087670;28;20593;-50
2023/01/29 08:32:32;;;;;;;7.87;5.77;;;;;;;8.99;68.72;94945.88;5067637;28;20201;-55
2023/01/29 08:34:59;;;;;;;6.37;5.43;;;;;;;8.81;68.43;94930.28;5067410;28;20629;-49
2023/01/29 08:37:26;;;;;;;8.33;6.97;;;;;;;8.91;68.07;94955.84;5067981;28;20187;-51
2023/01/29 08:39:52;;;;;;;7.33;5.37;;;;;;;8.87;67.85;94960.38;5067625;28;20194;-53
2023/01/29 08:42:19;;;;;;;6.90;6.20;;;;;;;8.84;67.46;94955.50;5072738;28;20621;-52
2023/01/29 08:44:47;;;;;;;8.67;5.80;;;;;;;8.77;67.20;94952.66;5088148;28;20748;-49
2023/01/29 08:47:14;;;;;;;5.87;5.23;;;;;;;8.73;66.79;94953.81;5072672;28;20197;-49
2023/01/29 08:49:41;;;;;;;7.73;5.80;;;;;;;8.76;66.71;94965.50;5093313;28;20189;-49
2023/01/29 08:52:08;;;;;;;6.33;5.60;;;;;;;8.74;66.68;94965.63;5088496;28;20192;-54
2023/01/29 08:54:35;;;;;;;6.83;6.10;;;;;;;8.71;66.47;94970.97;5088068;28;20631;-51
2023/01/29 08:57:02;;;;;;;7.93;6.30;;;;;;;8.69;66.07;94977.13;5086523;28;20198;-48
2023/01/29 08:59:28;;;;;;;8.83;6.53;;;;;;;8.65;66.05;94974.00;5087455;28;20216;-50
2023/01/29 09:01:57;;;;;;;7.80;6.27;;;;;;;8.63;66.04;94975.84;5087128;28;20178;-51
2023/01/29 09:04:23;;;;;;;7.17;5.57;;;;;;;8.61;65.99;94977.72;5086790;28;20197;-52
2023/01/29 09:06:50;;;;;;;7.13;6.10;;;;;;;8.60;65.93;94982.94;5086303;28;20192;-49
2023/01/29 09:09:18;;;;;;;6.50;5.73;;;;;;;8.78;71.22;94976.41;5086798;28;20205;-49
2023/01/29 09:11:44;;;;;;;8.07;6.33;;;;;;;8.97;70.09;94983.41;5086405;28;20196;-52
2023/01/29 09:14:13;;;;;;;8.80;6.57;;;;;;;8.99;69.50;94979.03;5082290;28;20213;-47
2023/01/29 09:16:40;;;;;;;8.37;6.53;;;;;;;9.00;69.09;94972.97;5085961;28;20186;-49
2023/01/29 09:19:08;;;;;;;9.73;6.17;;;;;;;9.14;68.97;94971.88;5086095;28;20599;-48
2023/01/29 09:21:35;;;;;;;8.40;6.10;;;;;;;9.21;68.85;94968.72;5087094;28;20181;-46
2023/01/29 09:24:02;;;;;;;7.47;6.10;;;;;;;9.21;69.50;94966.19;5087081;28;20188;-47
2023/01/29 09:26:29;;;;;;;8.27;6.50;;;;;;;9.22;69.68;94970.34;5085929;28;20229;-46
2023/01/29 09:28:57;;;;;;;7.87;6.73;;;;;;;9.20;70.16;94972.22;5084884;28;20185;-48
2023/01/29 09:31:25;;;;;;;9.87;7.10;;;;;;;9.15;69.71;94969.19;5086758;28;20259;-49
2023/01/29 09:33:52;;;;;;;9.73;6.13;;;;;;;9.13;69.36;94975.38;5084459;28;20795;-46
2023/01/29 09:36:20;;;;;;;7.30;6.60;;;;;;;9.09;69.24;94968.91;5087283;28;20190;-47
2023/01/29 09:38:47;;;;;;;9.03;6.70;;;;;;;8.92;68.77;94944.72;5087065;28;20192;-47
2023/01/29 09:41:29;;;;;;;7.90;6.30;;;;;;;9.01;68.52;94967.75;5088080;28;20206;-46
2023/01/29 09:44:00;;;;;;;10.03;7.37;;;;;;;8.97;68.13;94963.81;5084268;28;20185;-47
2023/01/29 09:46:33;;;;;;;8.20;6.70;;;;;;;8.95;67.85;94959.78;5086865;28;20225;-49
2023/01/29 09:49:06;;;;;;;7.50;6.53;;;;;;;8.92;67.58;94958.28;5085538;28;20201;-47
2023/01/29 09:51:40;;;;;;;9.13;6.63;;;;;;;8.90;67.32;94969.53;5083202;28;20269;-47
2023/01/29 09:54:16;;;;;;;7.40;6.57;;;;;;;8.88;67.05;94956.09;5085737;28;20226;-48
2023/01/29 09:56:46;;;;;;;7.43;6.47;;;;;;;8.85;66.83;94958.88;5086544;28;20193;-46
2023/01/29 09:59:18;;;;;;;8.70;7.67;;;;;;;8.82;66.68;94965.03;5086389;28;20181;-46
2023/01/29 10:01:52;;;;;;;7.90;6.33;;;;;;;8.78;66.55;94956.81;5086592;28;20192;-48
2023/01/29 10:05:01;;;;;;;8.63;6.67;;;;;;;8.76;66.14;94953.59;5085799;28;20185;-49
2023/01/29 10:07:56;;;;;;;9.43;7.10;;;;;;;8.72;66.16;94959.84;5085319;28;20181;-48
2023/01/29 10:10:34;;;;;;;8.23;7.27;;;;;;;8.67;66.14;94948.38;5085928;28;20220;-49
2023/01/29 10:13:10;;;;;;;9.07;7.07;;;;;;;8.64;66.09;94946.91;5086690;28;20243;-49
2023/01/29 10:16:00;;;;;;;7.57;6.70;;;;;;;8.59;65.69;94941.31;5085437;28;20989;-47
2023/01/29 10:18:51;;;;;;;8.67;6.50;;;;;;;8.57;65.60;94943.19;5084114;28;20192;-46
2023/01/29 10:21:47;;;;;;;9.27;7.13;;;;;;;8.49;65.58;94930.22;5086240;28;20613;-49
2023/01/29 10:24:24;;;;;;;11.33;8.33;;;;;;;8.51;65.44;94941.94;5085769;28;20194;-49
2023/01/29 10:26:52;;;;;;;10.63;7.77;;;;;;;8.49;65.29;94940.44;5083829;28;20741;-48
2023/01/29 10:29:20;;;;;;;9.33;7.27;;;;;;;8.46;65.08;94935.56;5085935;28;20189;-49
2023/01/29 10:31:52;;;;;;;9.03;7.33;;;;;;;8.45;64.78;94933.94;5085849;28;20201;-46
2023/01/29 10:34:28;;;;;;;9.87;7.90;;;;;;;8.33;64.92;94909.38;5086901;28;20228;-50
2023/01/29 10:36:55;;;;;;;9.67;7.63;;;;;;;8.43;64.81;94925.63;5088344;28;20224;-48
2023/01/29 10:39:26;;;;;;;9.47;7.37;;;;;;;8.20;64.70;94889.13;5088921;28;20221;-48
2023/01/29 10:42:08;;;;;;;10.23;7.57;;;;;;;8.43;64.86;94918.78;5086825;28;20745;-50
2023/01/29 10:44:50;;;;;;;10.47;8.30;;;;;;;8.48;64.62;94921.78;5084547;28;20225;-49
2023/01/29 10:47:51;;;;;;;10.40;8.40;;;;;;;8.49;64.49;94925.94;5084670;28;20879;-49
2023/01/29 10:50:28;;;;;;;10.97;7.60;;;;;;;8.51;64.47;94920.75;5084027;28;20289;-47
2023/01/29 10:53:22;;;;;;;11.13;8.77;;;;;;;8.49;64.47;94914.94;5083811;28;20185;-48
2023/01/29 10:56:00;;;;;;;11.50;8.37;;;;;;;8.53;64.49;94918.88;5083916;28;20209;-49
2023/01/29 10:58:35;;;;;;;11.87;8.13;;;;;;;8.53;64.23;94913.78;5084007;28;20199;-50
2023/01/29 11:01:01;;;;;;;11.00;8.57;;;;;;;8.52;64.13;94918.06;5082224;28;20847;-47
2023/01/29 11:03:30;;;;;;;12.80;8.23;;;;;;;8.51;64.22;94915.66;5085878;28;20186;-49
2023/01/29 11:06:07;;;;;;;11.23;8.47;;;;;;;8.47;63.99;94909.97;5085424;28;20206;-47
2023/01/29 11:08:40;;;;;;;10.60;7.97;;;;;;;8.52;64.13;94912.16;5086441;28;20569;-48
2023/01/29 11:11:12;;;;;;;9.53;8.37;;;;;;;8.54;64.06;94918.75;5088961;28;20673;-48
2023/01/29 11:13:43;;;;;;;12.90;8.90;;;;;;;8.56;63.74;94913.53;5089060;28;20186;-47
2023/01/29 11:16:10;;;;;;;13.47;9.80;;;;;;;8.57;63.93;94911.81;5089280;28;20232;-48
2023/01/29 11:18:58;;;;;;;11.13;8.93;;;;;;;8.57;63.92;94907.50;5089642;28;20198;-48
2023/01/29 11:21:27;;;;;;;11.93;9.50;;;;;;;8.34;63.79;94871.06;5089640;28;20182;-46
2023/01/29 11:24:15;;;;;;;13.10;9.20;;;;;;;8.57;63.66;94904.16;5089155;28;20196;-45
2023/01/29 11:26:46;;;;;;;11.90;8.67;;;;;;;8.61;63.82;94900.44;5089511;28;20205;-47
2023/01/29 11:29:34;;;;;;;12.87;9.67;;;;;;;8.63;63.67;94896.81;5089290;28;20215;-46
2023/01/29 11:32:04;;;;;;;12.87;9.57;;;;;;;8.65;63.60;94891.63;5089422;28;20193;-47
2023/01/29 11:34:31;;;;;;;12.60;9.43;;;;;;;8.67;63.46;94890.56;5088441;28;20182;-51
2023/01/29 11:36:59;;;;;;;13.77;9.83;;;;;;;8.70;63.49;94886.97;5088949;28;20669;-48
2023/01/29 11:39:27;;;;;;;13.13;9.60;;;;;;;8.74;63.25;94878.13;5089050;28;20201;-47
2023/01/29 11:41:59;;;;;;;13.47;9.07;;;;;;;8.79;63.19;94870.94;5088871;28;20704;-46
2023/01/29 11:44:31;;;;;;;14.03;10.57;;;;;;;8.85;63.08;94872.16;5088392;28;20178;-48
2023/01/29 11:47:11;;;;;;;13.13;9.67;;;;;;;8.90;62.81;94863.25;5089410;28;20268;-47
2023/01/29 11:49:40;;;;;;;13.40;9.23;;;;;;;8.97;62.62;94858.44;5089045;28;20594;-47
2023/01/29 11:52:09;;;;;;;12.63;9.33;;;;;;;9.00;62.48;94851.34;5089109;28;20345;-46
2023/01/29 11:54:40;;;;;;;13.33;9.27;;;;;;;9.11;62.45;94858.16;5088949;28;20542;-49
2023/01/29 11:57:24;;;;;;;13.10;9.90;;;;;;;9.17;62.62;94855.09;5088272;28;20198;-47
2023/01/29 11:59:53;;;;;;;12.80;9.80;;;;;;;9.21;61.95;94858.22;5089698;28;20299;-48
2023/01/29 12:02:26;;;;;;;13.63;10.10;;;;;;;9.28;61.81;94860.13;5089610;28;20189;-49
2023/01/29 12:04:56;;;;;;;12.53;10.40;;;;;;;9.34;61.93;94858.00;5089139;28;20300;-47
2023/01/29 12:07:23;;;;;;;12.83;9.67;;;;;;;9.37;61.78;94853.47;5087956;28;20186;-45
2023/01/29 12:09:53;;;;;;;13.87;9.37;;;;;;;9.47;61.68;94854.31;5088771;28;20564;-47
2023/01/29 12:12:38;;;;;;;13.20;9.93;;;;;;;9.54;61.58;94847.78;5088232;28;20287;-48
2023/01/29 12:15:15;;;;;;;13.90;9.57;;;;;;;9.61;61.37;94847.25;5087896;28;20704;-49
2023/01/29 12:17:46;;;;;;;14.00;9.70;;;;;;;9.48;61.18;94824.50;5088244;28;20185;-48
2023/01/29 12:20:17;;;;;;;12.07;9.40;;;;;;;9.68;60.92;94849.19;5087931;28;20284;-47
2023/01/29 12:22:50;;;;;;;11.97;8.90;;;;;;;9.71;61.03;94853.19;5088152;28;20185;-49